Time;durP1;ratioP1;P1;durP2;ratioP2;P2;SDS_P1;SDS_P2;PMS_P1;PMS_P2;Temp;Humidity;BMP_temperature;BMP_pressure;BME280_temperature;BME280_humidity;BME280_pressure;Samples;Min_cycle;Max_cycle;Signal;HPM_P1;HPM_P2
2023/12/10 00:02:00;;;;;;;45.92;6.78;;;12.60;55.70;;;;;;4987207;28;20046;-40
2023/12/10 00:04:27;;;;;;;33.60;5.30;;;12.70;55.70;;;;;;4987336;28;20054;-38
2023/12/10 00:06:54;;;;;;;31.10;6.10;;;12.70;55.80;;;;;;4988398;28;20050;-43
2023/12/10 00:09:23;;;;;;;42.67;6.45;;;12.80;55.90;;;;;;4988322;28;20050;-44
2023/12/10 00:11:50;;;;;;;32.05;4.88;;;12.80;55.60;;;;;;4990130;28;20491;-42
2023/12/10 00:14:17;;;;;;;37.33;6.10;;;12.80;55.70;;;;;;4990160;28;20054;-37
2023/12/10 00:16:44;;;;;;;40.25;6.50;;;12.90;55.60;;;;;;4986518;28;20050;-41
2023/12/10 00:19:12;;;;;;;45.55;6.18;;;12.80;54.70;;;;;;4986832;28;20054;-37
2023/12/10 00:21:39;;;;;;;40.97;6.53;;;12.70;55.00;;;;;;4987407;28;20061;-41
2023/12/10 00:24:07;;;;;;;32.45;4.90;;;12.80;55.00;;;;;;4987195;28;20495;-41
2023/12/10 00:26:35;;;;;;;29.20;4.75;;;12.80;55.20;;;;;;4994084;28;20077;-44
2023/12/10 00:29:03;;;;;;;36.03;7.10;;;12.90;55.40;;;;;;4988420;28;20057;-40
2023/12/10 00:31:30;;;;;;;25.80;4.07;;;12.90;55.20;;;;;;4985833;28;20662;-42
2023/12/10 00:33:57;;;;;;;36.25;5.45;;;12.90;55.20;;;;;;4986388;28;20070;-43
2023/12/10 00:36:25;;;;;;;34.92;6.32;;;12.90;55.50;;;;;;4986821;28;20435;-41
2023/12/10 00:38:54;;;;;;;33.38;4.97;;;12.90;55.10;;;;;;4987203;28;20077;-44
2023/12/10 00:41:21;;;;;;;36.20;5.18;;;13.00;55.30;;;;;;4987138;28;20054;-41
2023/12/10 00:43:49;;;;;;;41.83;6.10;;;13.00;55.30;;;;;;4987101;28;20057;-40
2023/12/10 00:46:17;;;;;;;31.45;5.78;;;13.00;55.10;;;;;;4985999;28;20264;-40
2023/12/10 00:48:44;;;;;;;32.38;5.88;;;13.00;55.10;;;;;;4984707;28;20411;-37
2023/12/10 00:51:19;;;;;;;30.55;5.55;;;13.00;54.80;;;;;;4988756;28;20054;-43
2023/12/10 00:53:47;;;;;;;34.85;5.95;;;13.00;54.50;;;;;;4989478;28;20050;-42
2023/12/10 00:56:14;;;;;;;40.05;6.78;;;13.00;54.70;;;;;;4986651;28;20407;-43
2023/12/10 00:58:41;;;;;;;42.08;6.00;;;13.00;54.40;;;;;;4987221;28;20073;-48
2023/12/10 01:01:10;;;;;;;38.20;6.38;;;13.00;54.60;;;;;;4986859;28;20061;-42
2023/12/10 01:03:37;;;;;;;41.65;6.63;;;13.00;54.50;;;;;;4989064;28;20060;-42
2023/12/10 01:06:07;;;;;;;39.85;6.10;;;13.00;54.30;;;;;;4985780;28;20050;-41
2023/12/10 01:08:35;;;;;;;38.08;5.70;;;12.90;54.10;;;;;;4988642;28;20057;-41
2023/12/10 01:11:02;;;;;;;42.78;6.15;;;12.90;54.20;;;;;;4986613;28;20046;-41
2023/12/10 01:13:29;;;;;;;34.45;5.57;;;12.90;54.00;;;;;;4983224;28;20050;-39
2023/12/10 01:15:56;;;;;;;43.20;5.75;;;12.90;54.00;;;;;;4986850;28;20060;-38
2023/12/10 01:18:25;;;;;;;37.20;6.03;;;12.90;54.70;;;;;;4985853;28;20066;-39
2023/12/10 01:20:52;;;;;;;36.72;5.82;;;12.90;54.10;;;;;;4991990;28;20549;-41
2023/12/10 01:23:20;;;;;;;38.00;5.70;;;12.90;54.20;;;;;;4987893;28;20069;-41
2023/12/10 01:25:47;;;;;;;42.25;6.07;;;12.90;54.10;;;;;;4987201;28;20058;-40
2023/12/10 01:28:14;;;;;;;31.13;5.43;;;12.90;53.80;;;;;;4994783;28;20041;-43
2023/12/10 01:30:42;;;;;;;34.08;5.35;;;12.90;53.80;;;;;;4991686;28;20069;-41
2023/12/10 01:33:10;;;;;;;33.95;5.60;;;12.90;54.00;;;;;;4988876;28;20066;-40
2023/12/10 01:35:38;;;;;;;42.53;6.00;;;12.90;53.80;;;;;;4989017;28;20388;-39
2023/12/10 01:38:06;;;;;;;42.72;5.85;;;12.90;53.80;;;;;;4986942;28;20050;-37
2023/12/10 01:40:33;;;;;;;36.97;5.63;;;12.90;53.50;;;;;;4986416;28;20053;-39
2023/12/10 01:43:06;;;;;;;32.45;5.25;;;12.80;53.60;;;;;;4987960;28;20054;-41
2023/12/10 01:45:33;;;;;;;30.55;4.90;;;12.90;53.80;;;;;;4988046;28;20073;-41
2023/12/10 01:48:05;;;;;;;31.25;5.53;;;12.80;53.60;;;;;;4985402;28;20061;-38
2023/12/10 01:50:33;;;;;;;40.75;4.88;;;12.90;53.60;;;;;;4986039;28;20058;-41
2023/12/10 01:53:03;;;;;;;31.88;4.38;;;12.90;53.60;;;;;;4985017;28;20058;-42
2023/12/10 01:55:30;;;;;;;43.50;6.38;;;12.90;53.40;;;;;;4985217;28;20057;-42
2023/12/10 01:57:58;;;;;;;31.10;4.47;;;12.80;53.30;;;;;;4987135;28;20054;-41
2023/12/10 02:00:26;;;;;;;37.83;6.05;;;12.90;53.50;;;;;;4985240;28;20061;-37
2023/12/10 02:02:53;;;;;;;40.35;6.07;;;12.80;53.00;;;;;;4987859;28;20054;-38
2023/12/10 02:05:20;;;;;;;42.30;6.13;;;12.80;53.10;;;;;;4984854;28;20611;-42
2023/12/10 02:07:47;;;;;;;38.22;5.30;;;12.80;53.40;;;;;;4985793;28;20054;-44
2023/12/10 02:10:16;;;;;;;31.67;4.65;;;12.90;53.40;;;;;;4990207;28;20054;-41
2023/12/10 02:12:46;;;;;;;42.10;5.05;;;12.80;53.20;;;;;;4987381;28;20061;-40
2023/12/10 02:15:15;;;;;;;39.70;5.72;;;12.70;53.30;;;;;;4988208;28;20077;-42
2023/12/10 02:17:43;;;;;;;35.13;5.00;;;12.70;53.50;;;;;;4987319;28;20061;-39
2023/12/10 02:20:11;;;;;;;34.70;5.63;;;12.70;53.60;;;;;;4986471;28;20053;-37
2023/12/10 02:22:44;;;;;;;28.48;4.88;;;12.70;53.50;;;;;;4988674;28;20057;-40
2023/12/10 02:25:14;;;;;;;24.30;4.40;;;12.70;53.40;;;;;;4981354;28;20050;-39
2023/12/10 02:27:42;;;;;;;32.53;5.13;;;12.70;53.20;;;;;;4987148;28;20057;-39
2023/12/10 02:30:11;;;;;;;30.35;4.72;;;12.70;53.20;;;;;;4988100;28;20053;-40
2023/12/10 02:32:38;;;;;;;27.73;4.55;;;12.70;53.50;;;;;;4989082;28;20054;-41
2023/12/10 02:35:06;;;;;;;28.58;4.72;;;12.70;53.30;;;;;;4988174;28;20081;-43
2023/12/10 02:37:34;;;;;;;28.52;4.53;;;12.70;53.40;;;;;;4992313;28;20062;-44
2023/12/10 02:40:02;;;;;;;26.73;5.03;;;12.70;53.50;;;;;;4991208;28;20422;-41
2023/12/10 02:42:29;;;;;;;28.70;5.20;;;12.60;53.20;;;;;;4989958;28;20483;-39
2023/12/10 02:44:58;;;;;;;27.73;4.70;;;12.60;53.30;;;;;;4990209;28;20052;-41
2023/12/10 02:47:25;;;;;;;32.50;5.30;;;12.50;53.40;;;;;;4989462;28;20070;-41
2023/12/10 02:49:52;;;;;;;33.42;5.15;;;12.60;53.40;;;;;;4988142;28;20352;-38
2023/12/10 02:52:22;;;;;;;23.65;4.93;;;12.60;53.40;;;;;;4990754;28;20057;-44
2023/12/10 02:54:49;;;;;;;24.75;4.28;;;12.60;53.50;;;;;;4991815;28;20388;-40
2023/12/10 02:57:16;;;;;;;23.70;4.25;;;12.60;53.30;;;;;;4989897;28;20046;-38
2023/12/10 02:59:44;;;;;;;30.88;5.00;;;12.50;53.60;;;;;;4988139;28;20069;-39
2023/12/10 03:02:12;;;;;;;21.15;4.03;;;12.50;53.60;;;;;;4990309;28;20475;-41
2023/12/10 03:04:40;;;;;;;28.35;4.20;;;12.50;53.50;;;;;;4988812;28;20058;-38
2023/12/10 03:07:07;;;;;;;30.08;4.32;;;12.50;53.60;;;;;;4992400;28;21214;-36
2023/12/10 03:09:34;;;;;;;24.35;4.18;;;12.40;53.90;;;;;;4991061;28;20062;-38
2023/12/10 03:12:01;;;;;;;31.70;5.22;;;12.40;53.90;;;;;;4990484;28;20057;-37
2023/12/10 03:14:28;;;;;;;30.92;4.38;;;12.40;53.80;;;;;;4990255;28;20062;-40
2023/12/10 03:16:56;;;;;;;31.13;5.18;;;12.50;53.80;;;;;;4990876;28;20057;-42
2023/12/10 03:19:24;;;;;;;24.55;4.13;;;12.50;53.90;;;;;;4989470;28;20054;-38
2023/12/10 03:21:52;;;;;;;21.00;4.38;;;12.50;54.00;;;;;;4987986;28;20522;-45
2023/12/10 03:24:19;;;;;;;28.52;5.97;;;12.50;53.90;;;;;;4990786;28;20046;-44
2023/12/10 03:26:46;;;;;;;29.50;4.07;;;12.40;53.80;;;;;;4990248;28;20061;-41
2023/12/10 03:29:13;;;;;;;26.45;4.68;;;12.40;54.00;;;;;;4991965;28;20054;-45
2023/12/10 03:31:41;;;;;;;24.40;4.03;;;12.50;54.10;;;;;;4991501;28;20060;-38
2023/12/10 03:34:08;;;;;;;33.75;4.75;;;12.50;54.00;;;;;;4991073;28;20069;-40
2023/12/10 03:36:36;;;;;;;25.80;5.68;;;12.40;53.90;;;;;;4988104;28;20054;-41
2023/12/10 03:39:04;;;;;;;32.10;4.60;;;12.30;54.00;;;;;;4988007;28;20421;-41
2023/12/10 03:41:31;;;;;;;28.67;5.13;;;12.40;54.00;;;;;;4988163;28;20046;-45
2023/12/10 03:43:59;;;;;;;24.27;4.28;;;12.50;53.90;;;;;;4988430;28;20058;-44
2023/12/10 03:46:26;;;;;;;28.90;4.22;;;12.40;53.90;;;;;;4987933;28;20066;-42
2023/12/10 03:48:53;;;;;;;21.40;3.58;;;12.40;53.60;;;;;;4989611;28;20786;-38
2023/12/10 03:51:20;;;;;;;27.30;4.00;;;12.40;53.90;;;;;;4987321;28;20073;-44
2023/12/10 03:53:49;;;;;;;26.75;4.50;;;12.50;54.00;;;;;;4988703;28;20058;-41
2023/12/10 03:56:16;;;;;;;26.73;4.90;;;12.50;54.00;;;;;;4988006;28;20050;-43
2023/12/10 03:58:44;;;;;;;32.67;4.07;;;12.50;53.60;;;;;;4988619;28;20058;-44
2023/12/10 04:01:11;;;;;;;26.48;4.30;;;12.50;53.60;;;;;;4986297;28;20057;-45
2023/12/10 04:03:39;;;;;;;32.22;5.45;;;12.50;53.80;;;;;;4987832;28;20050;-44
2023/12/10 04:06:06;;;;;;;22.15;3.85;;;12.50;53.60;;;;;;4989532;28;20081;-46
2023/12/10 04:08:34;;;;;;;23.27;3.88;;;12.50;53.70;;;;;;4988583;28;20062;-38
2023/12/10 04:11:03;;;;;;;27.83;4.00;;;12.60;53.80;;;;;;4989210;28;20050;-38
2023/12/10 04:13:31;;;;;;;35.45;4.75;;;12.50;53.60;;;;;;4984688;28;20058;-43
2023/12/10 04:16:00;;;;;;;29.67;4.65;;;12.40;53.90;;;;;;4988532;28;20154;-40
2023/12/10 04:18:28;;;;;;;26.33;4.10;;;12.40;53.50;;;;;;4988249;28;20422;-42
2023/12/10 04:20:55;;;;;;;30.05;3.85;;;12.40;53.30;;;;;;4992373;28;20096;-44
2023/12/10 04:23:22;;;;;;;31.63;4.25;;;12.50;53.60;;;;;;4989839;28;20442;-45
2023/12/10 04:25:49;;;;;;;33.92;5.32;;;12.40;53.60;;;;;;4986786;28;20088;-44
2023/12/10 04:28:18;;;;;;;33.50;4.97;;;12.30;53.60;;;;;;4988620;28;20407;-42
2023/12/10 04:30:45;;;;;;;28.60;4.32;;;12.30;53.90;;;;;;4988290;28;20050;-40
2023/12/10 04:33:14;;;;;;;39.28;6.18;;;12.30;53.80;;;;;;4987684;28;20388;-41
2023/12/10 04:35:41;;;;;;;27.88;3.92;;;12.20;54.40;;;;;;4984120;28;20057;-40
2023/12/10 04:38:09;;;;;;;22.48;3.80;;;12.30;54.20;;;;;;4987722;28;20064;-42
2023/12/10 04:40:36;;;;;;;37.53;5.95;;;12.40;54.40;;;;;;4988226;28;20491;-42
2023/12/10 04:43:03;;;;;;;29.25;5.53;;;12.30;54.10;;;;;;4986061;28;20054;-44
2023/12/10 04:45:32;;;;;;;36.58;5.53;;;12.30;54.00;;;;;;4989232;28;20058;-42
2023/12/10 04:47:59;;;;;;;35.38;5.20;;;12.40;54.00;;;;;;4983970;28;20058;-38
2023/12/10 04:50:26;;;;;;;27.63;4.90;;;12.30;53.80;;;;;;4985195;28;20495;-40
2023/12/10 04:52:53;;;;;;;31.17;4.07;;;12.30;53.90;;;;;;4997491;28;20047;-41
2023/12/10 04:55:21;;;;;;;25.67;4.63;;;12.40;53.90;;;;;;4990016;28;20067;-41
2023/12/10 04:57:48;;;;;;;27.52;4.63;;;12.40;53.80;;;;;;4996981;28;20045;-41
2023/12/10 05:00:17;;;;;;;27.40;4.50;;;12.30;53.90;;;;;;4993593;28;20057;-39
2023/12/10 05:02:46;;;;;;;26.15;3.90;;;12.40;53.80;;;;;;4994977;28;20052;-39
2023/12/10 05:05:13;;;;;;;20.88;4.05;;;12.30;53.70;;;;;;4989322;28;20069;-43
2023/12/10 05:07:40;;;;;;;45.50;4.63;;;12.40;53.80;;;;;;4991350;28;20058;-41
2023/12/10 05:10:08;;;;;;;28.42;4.55;;;12.40;53.60;;;;;;4992528;28;20077;-39
2023/12/10 05:12:35;;;;;;;30.92;5.18;;;12.40;53.60;;;;;;4987995;28;20487;-37
2023/12/10 05:15:03;;;;;;;29.92;4.07;;;12.40;53.40;;;;;;4994157;28;20062;-38
2023/12/10 05:17:30;;;;;;;33.50;5.00;;;12.40;53.20;;;;;;4985815;28;20057;-40
2023/12/10 05:19:58;;;;;;;41.58;4.85;;;12.30;53.00;;;;;;4982948;28;20055;-39
2023/12/10 05:22:26;;;;;;;32.22;5.65;;;12.20;52.70;;;;;;4994031;28;20479;-37
2023/12/10 05:24:53;;;;;;;31.25;4.45;;;12.20;52.80;;;;;;4988802;28;20058;-40
2023/12/10 05:27:20;;;;;;;24.75;3.78;;;12.30;53.00;;;;;;4988919;28;20054;-40
2023/12/10 05:29:47;;;;;;;31.35;4.45;;;12.30;52.70;;;;;;4988440;28;20046;-39
2023/12/10 05:32:15;;;;;;;26.95;4.60;;;12.30;52.60;;;;;;4983787;28;20054;-41
2023/12/10 05:34:42;;;;;;;33.45;5.65;;;12.30;52.40;;;;;;4991951;28;20050;-44
2023/12/10 05:37:11;;;;;;;26.15;4.70;;;12.30;52.50;;;;;;4987765;28;20434;-39
2023/12/10 05:39:38;;;;;;;25.75;3.70;;;12.30;52.20;;;;;;4993555;28;20057;-37
2023/12/10 05:42:05;;;;;;;23.65;4.30;;;12.30;52.30;;;;;;4989966;28;20055;-46
2023/12/10 05:44:33;;;;;;;25.70;3.90;;;12.30;52.40;;;;;;4999785;28;20076;-44
2023/12/10 05:47:00;;;;;;;33.80;4.78;;;12.40;52.10;;;;;;4991928;28;20059;-39
2023/12/10 05:49:27;;;;;;;30.90;4.20;;;12.30;52.00;;;;;;4988319;28;20050;-44
2023/12/10 05:51:55;;;;;;;27.45;4.82;;;12.40;51.70;;;;;;4985896;28;20046;-39
2023/12/10 05:54:24;;;;;;;30.92;3.83;;;12.40;51.70;;;;;;4993756;28;20069;-44
2023/12/10 05:56:51;;;;;;;27.00;3.53;;;12.50;51.60;;;;;;4997504;28;20057;-47
2023/12/10 05:59:18;;;;;;;28.98;4.18;;;12.60;51.70;;;;;;4989207;28;20479;-42
2023/12/10 06:01:46;;;;;;;36.45;4.60;;;12.60;51.70;;;;;;4992146;28;20510;-42
2023/12/10 06:04:13;;;;;;;25.40;4.47;;;12.60;51.30;;;;;;4998015;28;20138;-41
2023/12/10 06:06:40;;;;;;;28.20;5.05;;;12.70;51.50;;;;;;4990023;28;20058;-43
2023/12/10 06:09:09;;;;;;;27.70;4.55;;;12.70;51.30;;;;;;4998244;28;20509;-41
2023/12/10 06:11:38;;;;;;;31.83;5.50;;;12.70;51.60;;;;;;4990695;28;20054;-43
2023/12/10 06:14:05;;;;;;;39.97;5.45;;;12.80;51.50;;;;;;5004162;28;20054;-42
2023/12/10 06:16:32;;;;;;;35.17;5.43;;;12.80;51.80;;;;;;4999996;28;20113;-42
2023/12/10 06:19:00;;;;;;;23.95;4.10;;;12.90;51.70;;;;;;4993413;28;20062;-42
2023/12/10 06:21:27;;;;;;;29.73;4.47;;;12.80;51.50;;;;;;4993742;28;20065;-42
2023/12/10 06:23:54;;;;;;;27.58;4.03;;;12.70;51.20;;;;;;4996768;28;20050;-43
2023/12/10 06:26:21;;;;;;;24.65;4.05;;;12.70;51.10;;;;;;4994709;28;20058;-43
2023/12/10 06:28:50;;;;;;;29.58;4.72;;;12.70;51.20;;;;;;4989762;28;20054;-41
2023/12/10 06:31:17;;;;;;;27.08;4.25;;;12.70;51.20;;;;;;4991722;28;20049;-42
2023/12/10 06:33:46;;;;;;;26.45;4.03;;;12.70;51.50;;;;;;4999211;28;20054;-42
2023/12/10 06:36:15;;;;;;;36.35;5.18;;;12.80;51.50;;;;;;4993148;28;20054;-43
2023/12/10 06:38:42;;;;;;;29.35;3.78;;;12.80;51.30;;;;;;4999246;28;20050;-41
2023/12/10 06:41:09;;;;;;;23.83;4.13;;;12.80;51.10;;;;;;4993711;28;20054;-42
2023/12/10 06:43:36;;;;;;;27.98;4.13;;;12.70;51.30;;;;;;4992643;28;20053;-43
2023/12/10 06:46:06;;;;;;;30.73;4.20;;;12.80;51.30;;;;;;4991378;28;20069;-40
2023/12/10 06:48:34;;;;;;;25.05;4.70;;;12.80;51.30;;;;;;4993270;28;20065;-42
2023/12/10 06:51:02;;;;;;;27.25;4.15;;;12.80;51.40;;;;;;4992761;28;20054;-40
2023/12/10 06:53:31;;;;;;;25.55;3.88;;;12.80;51.10;;;;;;4992731;28;20054;-43
2023/12/10 06:55:59;;;;;;;30.52;4.32;;;12.80;51.10;;;;;;4986417;28;20046;-42
2023/12/10 06:58:26;;;;;;;21.08;3.58;;;12.80;51.30;;;;;;4991411;28;20392;-45
2023/12/10 07:00:56;;;;;;;27.48;3.83;;;12.90;51.30;;;;;;4997826;28;20053;-44
2023/12/10 07:03:24;;;;;;;22.65;4.03;;;12.90;51.00;;;;;;4995169;28;20058;-45
2023/12/10 07:05:52;;;;;;;26.92;5.13;;;12.90;51.10;;;;;;4997632;28;20054;-38
2023/12/10 07:08:19;;;;;;;24.27;4.03;;;12.70;50.30;;;;;;4992410;28;20061;-40
2023/12/10 07:10:46;;;;;;;30.20;4.13;;;12.80;50.90;;;;;;4992885;28;20058;-41
2023/12/10 07:13:14;;;;;;;20.63;3.45;;;12.80;51.10;;;;;;4988908;28;20483;-39
2023/12/10 07:15:42;;;;;;;28.85;3.58;;;12.80;51.10;;;;;;4993221;28;20053;-45
2023/12/10 07:18:09;;;;;;;17.08;3.20;;;12.80;51.00;;;;;;4997960;28;20047;-43
2023/12/10 07:20:38;;;;;;;30.52;4.40;;;12.90;51.30;;;;;;4999472;28;20054;-42
2023/12/10 07:23:05;;;;;;;29.83;4.18;;;12.80;50.80;;;;;;4995270;28;20054;-44
2023/12/10 07:25:32;;;;;;;20.77;4.22;;;12.70;50.80;;;;;;4993342;28;20046;-44
2023/12/10 07:28:00;;;;;;;23.98;3.60;;;12.80;51.20;;;;;;4994984;28;20054;-43
2023/12/10 07:30:27;;;;;;;26.35;3.97;;;12.80;51.10;;;;;;5000035;28;20054;-44
2023/12/10 07:32:56;;;;;;;21.35;3.90;;;12.90;51.70;;;;;;4998922;28;20501;-40
2023/12/10 07:35:24;;;;;;;34.92;4.65;;;12.90;51.10;;;;;;4999847;28;20125;-42
2023/12/10 07:37:52;;;;;;;29.10;4.13;;;12.80;50.70;;;;;;4990038;28;20050;-39
2023/12/10 07:40:19;;;;;;;23.23;4.30;;;12.80;51.10;;;;;;4992308;28;20062;-42
2023/12/10 07:42:47;;;;;;;28.92;4.05;;;12.90;51.10;;;;;;4983275;28;20058;-41
2023/12/10 07:45:14;;;;;;;25.35;4.30;;;12.90;51.10;;;;;;4991865;28;20406;-43
2023/12/10 07:47:41;;;;;;;27.95;3.80;;;12.90;51.10;;;;;;4991750;28;20059;-44
2023/12/10 07:50:09;;;;;;;36.63;5.13;;;13.00;51.40;;;;;;4994321;28;20065;-42
2023/12/10 07:52:36;;;;;;;24.55;3.92;;;12.90;51.10;;;;;;4994906;28;20058;-46
2023/12/10 07:55:06;;;;;;;23.27;3.35;;;12.90;50.90;;;;;;4993473;28;20057;-41
2023/12/10 07:57:33;;;;;;;19.80;3.65;;;12.90;51.20;;;;;;4990188;28;20660;-41
2023/12/10 08:00:01;;;;;;;35.17;4.90;;;13.00;51.40;;;;;;4959175;28;1124447;-38
2023/12/10 08:02:28;;;;;;;22.02;2.85;;;12.90;51.00;;;;;;4992886;28;20058;-40
2023/12/10 08:04:55;;;;;;;21.45;3.42;;;12.90;51.20;;;;;;4988130;28;20587;-41
2023/12/10 08:07:22;;;;;;;23.30;3.90;;;13.00;51.40;;;;;;4993669;28;20055;-42
2023/12/10 08:09:50;;;;;;;27.45;4.97;;;12.90;51.20;;;;;;4989276;28;20054;-34
2023/12/10 08:12:19;;;;;;;31.15;4.43;;;12.90;51.10;;;;;;4987127;28;20057;-38
2023/12/10 08:14:47;;;;;;;17.20;3.25;;;12.90;51.30;;;;;;4998230;28;20054;-41
2023/12/10 08:17:14;;;;;;;24.13;3.75;;;13.00;51.50;;;;;;4996076;28;20050;-41
2023/12/10 08:19:41;;;;;;;22.08;3.83;;;13.00;51.50;;;;;;4997175;28;20065;-38
2023/12/10 08:22:08;;;;;;;29.63;3.70;;;12.90;51.20;;;;;;4997496;28;20066;-39
2023/12/10 08:24:35;;;;;;;27.17;3.65;;;13.00;51.40;;;;;;4990187;28;20047;-44
2023/12/10 08:27:03;;;;;;;20.17;3.15;;;12.90;51.10;;;;;;4991306;28;20061;-37
2023/12/10 08:29:31;;;;;;;26.00;3.83;;;13.00;51.50;;;;;;4992752;28;20049;-41
2023/12/10 08:31:59;;;;;;;28.88;4.15;;;13.00;51.30;;;;;;4984060;28;20050;-43
2023/12/10 08:34:26;;;;;;;27.20;4.20;;;13.00;51.50;;;;;;4996841;28;20221;-42
2023/12/10 08:36:53;;;;;;;26.48;3.17;;;12.90;51.30;;;;;;4990965;28;20052;-42
2023/12/10 08:39:21;;;;;;;23.73;3.30;;;12.90;51.40;;;;;;4988052;28;20058;-45
2023/12/10 08:41:48;;;;;;;30.80;4.47;;;13.00;51.50;;;;;;4986221;28;20050;-33
2023/12/10 08:44:15;;;;;;;24.70;3.33;;;12.90;51.10;;;;;;4985712;28;20047;-38
2023/12/10 08:46:44;;;;;;;28.38;4.72;;;13.00;51.40;;;;;;4988263;28;20058;-38
2023/12/10 08:49:11;;;;;;;20.58;3.58;;;12.90;51.20;;;;;;4990221;28;20054;-41
2023/12/10 08:51:38;;;;;;;27.75;5.22;;;13.00;51.30;;;;;;4988051;28;20399;-37
2023/12/10 08:54:07;;;;;;;18.65;3.25;;;12.90;51.20;;;;;;4995532;28;20050;-42
2023/12/10 08:56:34;;;;;;;31.63;5.43;;;13.00;51.30;;;;;;4987073;28;20487;-39
2023/12/10 08:59:03;;;;;;;20.50;4.35;;;12.90;51.00;;;;;;4990660;28;20392;-41
2023/12/10 09:01:30;;;;;;;30.77;5.03;;;12.90;51.00;;;;;;4985920;28;20061;-38
2023/12/10 09:03:59;;;;;;;17.13;3.55;;;12.90;50.30;;;;;;4985775;28;20063;-43
2023/12/10 09:06:26;;;;;;;24.08;3.67;;;12.90;51.00;;;;;;4991985;28;20488;-40
2023/12/10 09:08:54;;;;;;;24.80;3.80;;;12.90;50.80;;;;;;4988611;28;20058;-39
2023/12/10 09:11:21;;;;;;;19.88;3.35;;;13.00;50.90;;;;;;4986563;28;20062;-42
2023/12/10 09:13:48;;;;;;;22.50;3.97;;;13.00;50.80;;;;;;4985054;28;20159;-37
2023/12/10 09:16:17;;;;;;;21.33;4.03;;;13.10;50.90;;;;;;4989412;28;20526;-40
2023/12/10 09:18:44;;;;;;;17.33;3.05;;;13.10;51.00;;;;;;4989047;28;20056;-41
2023/12/10 09:21:13;;;;;;;22.10;3.83;;;13.10;50.80;;;;;;4984918;28;20418;-48
2023/12/10 09:23:43;;;;;;;24.55;3.58;;;13.10;50.40;;;;;;4982893;28;20058;-48
2023/12/10 09:26:11;;;;;;;23.27;4.00;;;13.20;50.60;;;;;;4986311;28;20054;-48
2023/12/10 09:28:38;;;;;;;26.17;4.10;;;13.10;50.40;;;;;;4983329;28;20053;-48
2023/12/10 09:31:06;;;;;;;27.35;3.78;;;13.10;50.30;;;;;;4989318;28;20559;-48
2023/12/10 09:33:33;;;;;;;20.20;3.97;;;13.10;50.50;;;;;;4988876;28;20045;-40
2023/12/10 09:36:00;;;;;;;27.70;3.83;;;13.20;50.60;;;;;;4982463;28;20062;-41
2023/12/10 09:38:29;;;;;;;20.50;3.88;;;13.20;50.30;;;;;;4988607;28;20422;-43
2023/12/10 09:40:56;;;;;;;17.17;3.10;;;13.20;50.00;;;;;;4984843;28;20058;-41
2023/12/10 09:43:24;;;;;;;22.48;4.25;;;13.30;50.20;;;;;;4989075;28;20414;-40
2023/12/10 09:45:51;;;;;;;20.63;3.53;;;13.20;50.00;;;;;;4994382;28;20053;-43
2023/12/10 09:48:18;;;;;;;25.88;4.07;;;13.20;50.10;;;;;;4986850;28;20050;-39
2023/12/10 09:50:46;;;;;;;23.88;3.60;;;13.30;50.30;;;;;;4989356;28;20058;-42
2023/12/10 09:53:13;;;;;;;18.98;3.58;;;13.30;50.30;;;;;;4985657;28;20050;-42
2023/12/10 09:55:42;;;;;;;19.52;4.32;;;13.30;50.30;;;;;;4983672;28;20053;-42
2023/12/10 09:58:09;;;;;;;22.60;3.63;;;13.20;49.90;;;;;;4986594;28;20046;-43
2023/12/10 10:00:38;;;;;;;19.25;3.35;;;13.20;49.70;;;;;;4984287;28;20073;-35
2023/12/10 10:03:06;;;;;;;41.25;4.35;;;13.20;49.90;;;;;;4985460;28;20054;-40
2023/12/10 10:05:34;;;;;;;21.52;3.85;;;13.20;50.10;;;;;;4988426;28;20061;-41
2023/12/10 10:08:02;;;;;;;22.65;3.40;;;13.30;50.00;;;;;;4989146;28;20046;-40
2023/12/10 10:10:31;;;;;;;16.23;3.35;;;13.30;50.10;;;;;;4988364;28;20061;-44
2023/12/10 10:13:00;;;;;;;19.75;3.30;;;13.30;50.30;;;;;;4982379;28;20054;-38
2023/12/10 10:15:29;;;;;;;27.85;4.95;;;13.40;50.10;;;;;;4986743;28;20054;-34
2023/12/10 10:17:57;;;;;;;22.52;3.67;;;13.30;49.50;;;;;;4983053;28;20077;-38
2023/12/10 10:20:26;;;;;;;17.27;3.72;;;13.40;49.70;;;;;;4989694;28;20054;-39
2023/12/10 10:22:55;;;;;;;19.17;3.78;;;13.40;50.10;;;;;;4988273;28;20054;-40
2023/12/10 10:25:23;;;;;;;25.10;3.20;;;13.50;50.00;;;;;;4988529;28;20058;-39
2023/12/10 10:27:51;;;;;;;23.60;3.05;;;13.50;50.00;;;;;;4986605;28;20967;-39
2023/12/10 10:30:19;;;;;;;19.55;3.53;;;13.50;50.20;;;;;;4988462;28;20058;-38
2023/12/10 10:32:48;;;;;;;19.58;3.38;;;13.50;49.90;;;;;;4982073;28;20065;-42
2023/12/10 10:35:15;;;;;;;24.23;3.80;;;13.60;49.90;;;;;;4987058;28;20046;-39
2023/12/10 10:37:43;;;;;;;20.90;3.45;;;13.60;50.00;;;;;;4985699;28;20070;-38
2023/12/10 10:40:11;;;;;;;24.10;3.47;;;13.50;49.60;;;;;;4984692;28;20708;-37
2023/12/10 10:42:38;;;;;;;21.50;3.92;;;13.60;49.70;;;;;;4982994;28;20054;-38
2023/12/10 10:45:07;;;;;;;30.77;3.60;;;13.60;49.70;;;;;;4984857;28;20054;-41
2023/12/10 10:47:37;;;;;;;23.08;3.45;;;13.70;49.90;;;;;;4983983;28;20054;-38
2023/12/10 10:50:06;;;;;;;16.77;3.20;;;13.70;49.50;;;;;;4987066;28;20050;-38
2023/12/10 10:52:35;;;;;;;16.73;3.17;;;13.70;49.80;;;;;;4985585;28;20062;-40
2023/12/10 10:55:04;;;;;;;14.23;2.65;;;13.70;49.70;;;;;;4988847;28;20057;-40
2023/12/10 10:57:34;;;;;;;16.02;3.08;;;13.80;49.90;;;;;;4986698;28;20446;-42
2023/12/10 11:00:11;;;;;;;18.88;3.35;;;13.80;49.70;;;;;;4988206;28;20073;-39
2023/12/10 11:02:40;;;;;;;16.90;2.83;;;13.80;50.00;;;;;;4989248;28;20061;-39
2023/12/10 11:05:08;;;;;;;30.90;4.18;;;13.90;49.90;;;;;;4995549;28;20066;-35
2023/12/10 11:07:35;;;;;;;30.45;4.70;;;13.80;49.60;;;;;;4993824;28;20054;-41
2023/12/10 11:10:05;;;;;;;23.98;4.15;;;13.80;49.80;;;;;;4993011;28;20077;-41
2023/12/10 11:12:46;;;;;;;16.25;4.15;;;13.80;49.90;;;;;;4991488;28;20050;-39
2023/12/10 11:15:24;;;;;;;23.30;3.95;;;13.80;49.70;;;;;;4991728;28;20058;-44
2023/12/10 11:17:54;;;;;;;19.88;3.15;;;13.90;49.80;;;;;;4989052;28;20057;-42
2023/12/10 11:20:35;;;;;;;18.55;2.95;;;13.90;49.90;;;;;;4985854;28;20077;-36
2023/12/10 11:23:05;;;;;;;16.98;3.03;;;14.00;49.90;;;;;;4989301;28;20061;-39
2023/12/10 11:25:33;;;;;;;23.17;3.60;;;14.00;49.80;;;;;;4989361;28;20069;-40
2023/12/10 11:28:02;;;;;;;20.83;3.97;;;14.10;50.00;;;;;;4988309;28;20407;-40
2023/12/10 11:30:29;;;;;;;21.60;3.35;;;14.10;49.70;;;;;;4991986;28;20050;-42
2023/12/10 11:32:58;;;;;;;26.85;3.70;;;14.10;50.00;;;;;;4985813;28;20054;-42
2023/12/10 11:35:25;;;;;;;22.70;3.72;;;14.10;49.60;;;;;;4985408;28;20061;-42
2023/12/10 11:37:52;;;;;;;18.83;3.75;;;14.00;49.70;;;;;;4989884;28;20491;-41
2023/12/10 11:40:20;;;;;;;18.73;3.35;;;14.00;49.80;;;;;;4987508;28;20066;-37
2023/12/10 11:42:47;;;;;;;18.83;3.42;;;14.10;49.90;;;;;;4991422;28;20061;-36
2023/12/10 11:45:15;;;;;;;23.75;3.50;;;14.00;49.80;;;;;;4991475;28;20424;-41
2023/12/10 11:47:43;;;;;;;28.40;4.65;;;14.10;50.20;;;;;;4986625;28;20058;-40
2023/12/10 11:50:14;;;;;;;30.60;4.15;;;14.00;49.80;;;;;;4987884;28;20050;-40
2023/12/10 11:52:42;;;;;;;23.75;3.63;;;14.10;49.90;;;;;;4991479;28;20065;-34
2023/12/10 11:55:09;;;;;;;20.90;3.40;;;14.10;49.80;;;;;;4989929;28;20050;-35
2023/12/10 11:57:42;;;;;;;29.15;4.35;;;14.10;49.80;;;;;;4987126;28;20121;-42
2023/12/10 12:00:12;;;;;;;22.60;3.80;;;14.00;49.70;;;;;;4987718;28;20057;-40
2023/12/10 12:02:43;;;;;;;22.02;3.70;;;14.10;50.20;;;;;;4991823;28;20061;-42
2023/12/10 12:05:13;;;;;;;19.85;3.60;;;14.20;50.20;;;;;;4997621;28;20046;-42
2023/12/10 12:07:42;;;;;;;30.75;3.88;;;14.20;50.30;;;;;;4998996;28;20073;-35
2023/12/10 12:10:11;;;;;;;24.52;4.32;;;14.10;49.90;;;;;;4990795;28;20059;-37
2023/12/10 12:12:40;;;;;;;24.85;3.72;;;14.10;50.10;;;;;;5001783;28;20577;-37
2023/12/10 12:15:09;;;;;;;21.42;3.28;;;14.20;50.20;;;;;;4995904;28;20057;-36
2023/12/10 12:17:37;;;;;;;25.90;3.53;;;14.20;50.10;;;;;;4993612;28;20491;-38
2023/12/10 12:20:19;;;;;;;27.45;3.78;;;14.20;50.10;;;;;;4992903;28;20050;-37
2023/12/10 12:22:47;;;;;;;18.85;3.42;;;14.20;49.90;;;;;;4991755;28;20073;-40
2023/12/10 12:25:15;;;;;;;25.10;4.47;;;14.20;49.90;;;;;;4990541;28;20042;-38
2023/12/10 12:27:43;;;;;;;18.52;3.65;;;14.20;49.80;;;;;;4995579;28;20523;-37
2023/12/10 12:30:11;;;;;;;20.77;3.15;;;14.20;49.80;;;;;;4991923;28;20050;-41
2023/12/10 12:32:38;;;;;;;24.45;3.60;;;14.20;49.80;;;;;;4984820;28;20404;-35
2023/12/10 12:35:06;;;;;;;27.90;3.58;;;14.30;50.00;;;;;;4995438;28;20053;-39
2023/12/10 12:37:34;;;;;;;20.30;3.95;;;14.30;49.90;;;;;;4991698;28;20054;-40
2023/12/10 12:40:02;;;;;;;26.17;4.18;;;14.30;50.00;;;;;;4998731;28;20050;-39